Time;durP1;ratioP1;P1;durP2;ratioP2;P2;SDS_P1;SDS_P2;PMS_P1;PMS_P2;Temp;Humidity;BMP_temperature;BMP_pressure;BME280_temperature;BME280_humidity;BME280_pressure;Samples;Min_cycle;Max_cycle;Signal;HPM_P1;HPM_P2
2021/10/10 00:02:37;;;;;;;85.53;77.00;;;;;;;11.53;100.00;103048.27;1941039;74;33524;-72
2021/10/10 00:08:03;;;;;;;83.40;74.97;;;;;;;11.58;100.00;103041.45;1941021;74;33530;-71
2021/10/10 00:13:27;;;;;;;86.77;77.97;;;;;;;11.43;100.00;103047.45;1940803;74;32977;-73
2021/10/10 00:18:52;;;;;;;83.80;75.60;;;;;;;11.47;100.00;103044.48;1940816;74;32973;-71
2021/10/10 00:24:36;;;;;;;84.07;75.53;;;;;;;11.51;100.00;103040.72;2009811;71;33351;-73
2021/10/10 00:30:02;;;;;;;83.67;75.33;;;;;;;11.45;100.00;103041.11;1940777;74;33083;-74
2021/10/10 00:35:26;;;;;;;81.83;73.60;;;;;;;11.41;100.00;103035.18;1940768;74;32970;-72
2021/10/10 00:40:51;;;;;;;80.70;72.37;;;;;;;11.45;100.00;103036.09;1940940;74;33544;-72
2021/10/10 00:46:16;;;;;;;82.90;74.70;;;;;;;11.45;100.00;103040.27;1940812;74;33083;-72
2021/10/10 00:51:45;;;;;;;82.93;74.67;;;;;;;11.43;100.00;103034.38;1940977;74;33055;-72
2021/10/10 00:57:11;;;;;;;80.50;72.63;;;;;;;11.39;100.00;103033.70;1940802;74;33065;-74
2021/10/10 01:02:40;;;;;;;79.00;71.40;;;;;;;11.10;100.00;103038.20;1940949;74;33075;-71
2021/10/10 01:08:07;;;;;;;81.23;73.00;;;;;;;11.08;100.00;103036.75;1940823;74;33047;-72
2021/10/10 01:13:32;;;;;;;82.37;74.03;;;;;;;11.00;100.00;103040.69;1940813;74;32970;-72
2021/10/10 01:18:58;;;;;;;85.63;76.57;;;;;;;11.02;100.00;103030.73;1940966;74;33563;-73
2021/10/10 01:24:23;;;;;;;88.87;79.20;;;;;;;11.21;100.00;103034.61;1940954;74;33471;-72
2021/10/10 01:29:47;;;;;;;86.83;77.90;;;;;;;11.18;100.00;103040.65;1940753;74;33086;-72
2021/10/10 01:35:13;;;;;;;84.43;75.60;;;;;;;11.05;100.00;103029.71;1940969;74;33480;-72
2021/10/10 01:40:43;;;;;;;83.00;74.13;;;;;;;11.04;100.00;103021.62;1940962;74;33579;-73
2021/10/10 01:46:06;;;;;;;89.07;78.60;;;;;;;11.02;100.00;103026.55;1940702;74;33031;-72
2021/10/10 01:51:38;;;;;;;86.20;76.63;;;;;;;10.92;100.00;103027.11;1940858;74;33441;-74
2021/10/10 01:57:02;;;;;;;86.53;77.37;;;;;;;10.84;100.00;103022.73;1940913;74;33478;-72
2021/10/10 02:02:27;;;;;;;94.27;82.73;;;;;;;11.02;100.00;103029.34;1940725;74;33007;-70
2021/10/10 02:07:52;;;;;;;91.00;81.03;;;;;;;11.15;100.00;103029.16;1940983;74;33073;-74
2021/10/10 02:13:16;;;;;;;89.00;79.33;;;;;;;11.10;100.00;103027.62;1940937;74;32952;-74
2021/10/10 02:18:41;;;;;;;84.93;76.40;;;;;;;11.07;100.00;103026.17;1940988;74;33423;-73
2021/10/10 02:24:06;;;;;;;83.53;75.13;;;;;;;11.02;100.00;103031.58;1940719;74;32968;-70
2021/10/10 02:29:31;;;;;;;82.10;73.73;;;;;;;11.01;100.00;103019.29;1941017;74;33446;-72
2021/10/10 02:34:55;;;;;;;85.07;76.80;;;;;;;10.86;100.00;103020.58;1940687;74;32978;-71
2021/10/10 02:40:20;;;;;;;81.53;73.10;;;;;;;10.76;100.00;103004.12;1940766;74;33059;-71
2021/10/10 02:45:44;;;;;;;79.93;71.77;;;;;;;10.57;100.00;103003.86;1940745;74;33043;-71
2021/10/10 02:51:08;;;;;;;81.37;73.10;;;;;;;10.48;100.00;102999.16;1940766;74;33461;-72
2021/10/10 02:56:33;;;;;;;79.70;71.73;;;;;;;10.38;100.00;102997.45;1940745;74;33066;-72
2021/10/10 03:01:57;;;;;;;79.80;71.77;;;;;;;10.43;100.00;103000.38;1940884;74;33560;-74
2021/10/10 03:07:22;;;;;;;81.57;73.47;;;;;;;10.20;100.00;103002.98;1940760;74;32969;-71
2021/10/10 03:12:47;;;;;;;79.00;71.27;;;;;;;10.20;100.00;102998.29;1940886;74;33074;-72
2021/10/10 03:18:11;;;;;;;77.93;70.00;;;;;;;10.08;100.00;103007.58;1940670;74;33080;-72
2021/10/10 03:23:35;;;;;;;76.33;69.03;;;;;;;10.07;100.00;103003.95;1907384;75;33250;-74
2021/10/10 03:29:00;;;;;;;78.37;70.47;;;;;;;10.05;100.00;103004.73;1940943;74;33595;-74
2021/10/10 03:34:26;;;;;;;77.43;69.73;;;;;;;10.06;100.00;103003.09;1941014;74;33103;-74
2021/10/10 03:39:50;;;;;;;75.77;67.77;;;;;;;9.95;100.00;103012.19;1940977;74;33418;-72
2021/10/10 03:45:20;;;;;;;77.10;69.50;;;;;;;9.96;100.00;103011.66;1940804;74;33020;-74
2021/10/10 03:50:45;;;;;;;74.37;66.60;;;;;;;9.99;100.00;103003.71;1940910;74;33535;-74
2021/10/10 03:56:16;;;;;;;77.70;69.63;;;;;;;10.17;100.00;102999.30;1940844;74;32971;-74
2021/10/10 04:01:41;;;;;;;78.20;70.17;;;;;;;10.06;100.00;103003.09;1895105;73;39737;-74
2021/10/10 04:07:08;;;;;;;78.70;70.50;;;;;;;10.13;100.00;102997.48;1940732;74;33125;-71
2021/10/10 04:12:33;;;;;;;82.77;73.90;;;;;;;10.38;100.00;102991.89;1940772;74;32977;-74
2021/10/10 04:17:58;;;;;;;81.47;72.97;;;;;;;10.54;100.00;102981.53;1940834;74;33645;-74
2021/10/10 04:23:23;;;;;;;85.97;77.00;;;;;;;10.54;100.00;102977.36;1940839;74;33462;-72
2021/10/10 04:28:53;;;;;;;81.43;72.80;;;;;;;10.83;100.00;102977.92;1940748;74;33074;-74
2021/10/10 04:34:17;;;;;;;80.33;72.07;;;;;;;10.73;100.00;102973.49;1940824;74;32961;-74
2021/10/10 04:39:42;;;;;;;84.47;75.30;;;;;;;10.85;100.00;102982.73;1940868;74;33029;-72
2021/10/10 04:45:08;;;;;;;80.43;72.17;;;;;;;11.03;100.00;102990.72;1940712;74;32969;-71
2021/10/10 04:50:33;;;;;;;81.87;73.37;;;;;;;11.08;100.00;102984.73;1940922;74;31628;-74
2021/10/10 04:55:57;;;;;;;81.73;73.30;;;;;;;11.10;100.00;102985.89;1940748;74;33030;-74
2021/10/10 05:01:21;;;;;;;81.47;72.87;;;;;;;11.11;100.00;102986.20;1940736;74;33636;-75
2021/10/10 05:06:47;;;;;;;84.57;75.47;;;;;;;11.13;100.00;102980.70;1941010;74;32970;-74
2021/10/10 05:12:12;;;;;;;84.27;75.53;;;;;;;11.23;100.00;102985.16;1940951;74;33073;-73
2021/10/10 05:17:38;;;;;;;83.97;74.87;;;;;;;11.23;100.00;102986.55;1940963;74;32946;-73
2021/10/10 05:23:04;;;;;;;82.97;74.23;;;;;;;11.20;100.00;102984.79;1940947;74;33483;-74
2021/10/10 05:28:29;;;;;;;84.37;75.93;;;;;;;11.28;100.00;102976.95;1940937;74;33024;-74
2021/10/10 05:33:53;;;;;;;81.13;72.90;;;;;;;11.28;100.00;102980.27;1940831;74;33026;-72
2021/10/10 05:39:37;;;;;;;85.17;76.47;;;;;;;11.42;100.00;102972.84;2009600;71;32864;-71
2021/10/10 05:45:01;;;;;;;82.90;74.50;;;;;;;11.47;100.00;102976.88;1940775;74;32969;-74
2021/10/10 05:50:26;;;;;;;79.40;71.07;;;;;;;11.36;100.00;102977.14;1940810;74;32975;-74
2021/10/10 05:55:54;;;;;;;83.73;75.10;;;;;;;11.51;100.00;102985.05;1940978;74;32968;-69
2021/10/10 06:01:17;;;;;;;83.10;74.83;;;;;;;11.50;100.00;102986.98;1940964;74;33587;-69
2021/10/10 06:06:41;;;;;;;81.37;72.97;;;;;;;11.53;100.00;102983.70;1940842;74;33055;-72
2021/10/10 06:12:08;;;;;;;80.50;72.23;;;;;;;11.49;100.00;102989.98;1940971;74;33536;-71
2021/10/10 06:17:51;;;;;;;82.60;74.10;;;;;;;11.55;100.00;102991.26;2009648;71;33465;-69
2021/10/10 06:23:16;;;;;;;82.77;74.10;;;;;;;11.70;100.00;102996.37;1940950;74;33031;-72
2021/10/10 06:28:41;;;;;;;79.03;70.80;;;;;;;11.71;100.00;102993.90;1941033;74;32975;-72
2021/10/10 06:34:05;;;;;;;80.53;72.00;;;;;;;11.65;100.00;102998.48;1940778;74;33031;-71
2021/10/10 06:39:29;;;;;;;78.17;70.23;;;;;;;11.69;100.00;103010.83;1941033;74;32970;-71
2021/10/10 06:44:54;;;;;;;77.80;69.50;;;;;;;11.73;100.00;103005.13;1940856;74;31142;-71
2021/10/10 06:50:18;;;;;;;79.20;71.03;;;;;;;11.88;100.00;103012.16;1940785;74;33063;-70
2021/10/10 06:55:42;;;;;;;79.67;71.03;;;;;;;11.86;100.00;103016.03;1940916;74;33138;-71
2021/10/10 07:01:07;;;;;;;88.90;79.23;;;;;;;12.02;100.00;103015.02;1940982;74;33462;-69
2021/10/10 07:06:31;;;;;;;90.00;79.67;;;;;;;12.25;100.00;103021.96;1940837;74;32963;-71
2021/10/10 07:11:56;;;;;;;94.17;83.80;;;;;;;12.27;100.00;103023.97;1940898;74;32960;-69
2021/10/10 07:17:23;;;;;;;86.83;77.70;;;;;;;12.34;100.00;103020.50;1940962;74;33096;-70
2021/10/10 07:22:57;;;;;;;90.30;80.60;;;;;;;12.43;100.00;103020.97;1940839;74;32969;-69
2021/10/10 07:28:13;;;;;;;92.70;83.00;;;;;;;12.57;100.00;103029.38;1940810;74;32985;-69
2021/10/10 07:33:38;;;;;;;87.37;78.03;;;;;;;12.58;100.00;103036.09;1940976;74;33027;-69
2021/10/10 07:39:03;;;;;;;88.33;79.27;;;;;;;12.74;100.00;103035.89;1940814;74;32946;-69
2021/10/10 07:44:31;;;;;;;87.90;78.47;;;;;;;12.84;100.00;103031.05;1940757;74;33039;-71
2021/10/10 07:49:56;;;;;;;86.93;77.63;;;;;;;13.00;100.00;103037.27;1940898;74;32962;-72
2021/10/10 07:55:20;;;;;;;85.60;76.90;;;;;;;13.09;100.00;103036.59;1940709;74;33027;-72
2021/10/10 08:00:45;;;;;;;82.10;73.20;;;;;;;13.20;100.00;103041.33;1940913;74;33495;-69
2021/10/10 08:06:12;;;;;;;82.53;74.10;;;;;;;13.32;100.00;103041.27;1940904;74;33703;-71
2021/10/10 08:11:37;;;;;;;82.97;74.73;;;;;;;13.44;100.00;103046.78;1940818;74;32965;-71
2021/10/10 08:17:01;;;;;;;83.60;75.23;;;;;;;13.48;100.00;103041.84;1940892;74;33484;-72
2021/10/10 08:22:26;;;;;;;81.93;73.53;;;;;;;13.67;100.00;103057.28;1940759;74;33003;-72
2021/10/10 08:27:50;;;;;;;81.03;73.00;;;;;;;13.76;100.00;103062.45;1940813;74;33027;-68
2021/10/10 08:33:15;;;;;;;80.30;72.20;;;;;;;13.87;100.00;103058.72;1940796;74;32983;-73
2021/10/10 08:38:41;;;;;;;79.33;71.20;;;;;;;13.91;100.00;103060.75;1940789;74;32955;-72
2021/10/10 08:44:11;;;;;;;78.30;70.40;;;;;;;13.97;100.00;103065.89;1940785;74;32975;-72
2021/10/10 08:49:38;;;;;;;82.33;74.00;;;;;;;14.13;100.00;103069.22;1940983;74;33476;-72
2021/10/10 08:55:05;;;;;;;79.40;70.90;;;;;;;14.23;100.00;103069.39;1940847;74;33462;-72
2021/10/10 09:00:32;;;;;;;79.10;71.00;;;;;;;14.44;100.00;103069.17;1940983;74;33467;-75
2021/10/10 09:05:59;;;;;;;74.37;66.80;;;;;;;14.69;100.00;103073.73;1940876;74;33042;-71
2021/10/10 09:11:45;;;;;;;75.50;67.87;;;;;;;14.79;100.00;103076.67;2009419;71;32877;-72
2021/10/10 09:17:14;;;;;;;75.60;68.00;;;;;;;14.78;100.00;103083.92;1940960;74;33067;-72
2021/10/10 09:22:45;;;;;;;74.13;66.73;;;;;;;14.83;100.00;103086.80;1940937;74;32987;-75
2021/10/10 09:28:24;;;;;;;73.70;66.53;;;;;;;14.86;100.00;103091.31;1940874;74;32990;-72
2021/10/10 09:33:52;;;;;;;74.20;66.57;;;;;;;14.97;100.00;103096.50;1940791;74;34324;-72
2021/10/10 09:39:19;;;;;;;76.73;68.53;;;;;;;15.09;100.00;103100.56;1940774;74;32970;-71
2021/10/10 09:44:49;;;;;;;73.23;65.93;;;;;;;15.12;100.00;103102.28;1940908;74;32986;-71
2021/10/10 09:50:15;;;;;;;72.87;65.33;;;;;;;15.23;100.00;103095.68;1940895;74;33503;-72
2021/10/10 09:55:41;;;;;;;74.07;66.83;;;;;;;15.40;100.00;103097.02;1940836;74;33091;-72
2021/10/10 10:01:15;;;;;;;71.73;64.33;;;;;;;15.48;100.00;103100.20;1940963;74;31145;-73
2021/10/10 10:06:55;;;;;;;72.10;65.03;;;;;;;15.55;100.00;103101.41;1941070;74;33072;-71
2021/10/10 10:12:22;;;;;;;70.77;63.73;;;;;;;15.60;100.00;103097.81;1940774;74;31124;-72
2021/10/10 10:17:49;;;;;;;68.43;61.27;;;;;;;15.60;100.00;103106.22;1940976;74;33039;-72
2021/10/10 10:23:14;;;;;;;69.13;62.30;;;;;;;15.55;100.00;103102.81;1940975;74;31136;-72
2021/10/10 10:28:40;;;;;;;61.97;56.50;;;;;;;15.64;100.00;103104.03;1940780;74;33033;-72
2021/10/10 10:34:21;;;;;;;62.33;56.83;;;;;;;15.81;100.00;103115.13;1940763;74;31093;-72
2021/10/10 10:39:53;;;;;;;59.57;54.67;;;;;;;16.01;100.00;103106.05;1941107;74;31514;-72
2021/10/10 10:45:36;;;;;;;61.37;56.57;;;;;;;16.12;100.00;103103.64;1940803;74;31202;-72
2021/10/10 10:51:28;;;;;;;56.33;51.63;;;;;;;16.16;100.00;103097.78;1941032;74;33422;-72
2021/10/10 10:57:35;;;;;;;55.30;50.77;;;;;;;16.35;100.00;103113.05;1940932;74;32958;-72
2021/10/10 11:03:17;;;;;;;58.20;53.90;;;;;;;16.46;100.00;103101.37;1940898;74;31038;-72
2021/10/10 11:08:45;;;;;;;52.97;48.90;;;;;;;16.55;100.00;103105.36;1940963;74;31109;-72
2021/10/10 11:14:21;;;;;;;53.80;49.73;;;;;;;16.58;100.00;103099.23;1941021;74;33509;-72
2021/10/10 11:19:52;;;;;;;51.10;47.40;;;;;;;16.73;100.00;103100.16;1940798;74;31047;-72
2021/10/10 11:25:15;;;;;;;49.87;46.17;;;;;;;16.89;100.00;103102.51;1940759;74;31115;-72
2021/10/10 11:30:43;;;;;;;49.57;45.87;;;;;;;16.95;100.00;103098.59;1940967;74;31041;-72
2021/10/10 11:36:08;;;;;;;49.43;46.03;;;;;;;17.03;100.00;103095.25;1940798;74;31151;-71
2021/10/10 11:41:51;;;;;;;48.73;45.33;;;;;;;17.14;100.00;103100.37;1941047;74;31050;-72
2021/10/10 11:47:24;;;;;;;47.63;44.43;;;;;;;17.13;100.00;103091.09;1940798;74;31112;-73
2021/10/10 11:52:57;;;;;;;49.60;46.30;;;;;;;17.25;100.00;103080.45;1940846;74;31165;-71
2021/10/10 11:58:24;;;;;;;49.08;45.95;;;;;;;17.34;100.00;103075.70;1924971;74;28720;-72
2021/10/10 12:03:49;;;;;;;59.50;55.90;;;;;;;17.19;100.00;103055.45;1940832;74;31112;-72
2021/10/10 12:09:17;;;;;;;61.30;57.50;;;;;;;17.31;100.00;103056.04;1940775;74;31026;-72
2021/10/10 12:15:01;;;;;;;54.83;51.53;;;;;;;17.75;100.00;103040.97;1940942;74;31591;-73
2021/10/10 12:20:31;;;;;;;41.20;38.57;;;;;;;17.83;100.00;103042.38;1940744;74;31046;-72
2021/10/10 12:26:00;;;;;;;43.50;40.67;;;;;;;17.89;100.00;103037.01;1940790;74;31122;-72
2021/10/10 12:31:35;;;;;;;51.13;48.03;;;;;;;17.84;100.00;103030.82;1940764;74;31142;-70
2021/10/10 12:37:07;;;;;;;44.00;41.47;;;;;;;17.99;100.00;103029.98;1940781;74;31035;-72
2021/10/10 12:42:50;;;;;;;38.47;36.13;;;;;;;18.33;100.00;103023.18;1940947;74;31126;-72
2021/10/10 12:48:16;;;;;;;39.73;37.30;;;;;;;18.02;100.00;103021.82;1940926;74;31602;-72
2021/10/10 12:53:47;;;;;;;42.23;39.53;;;;;;;17.74;100.00;103018.19;1940764;74;31135;-72
2021/10/10 12:59:33;;;;;;;44.30;41.50;;;;;;;17.54;100.00;103004.10;2009681;71;31006;-72
2021/10/10 13:04:57;;;;;;;40.37;37.90;;;;;;;17.61;100.00;103008.35;1941014;74;31664;-72
2021/10/10 13:10:41;;;;;;;40.30;37.90;;;;;;;17.81;100.00;102994.84;2003959;71;31442;-71
2021/10/10 13:16:06;;;;;;;38.17;36.03;;;;;;;17.93;100.00;102995.95;1940969;74;31077;-72
2021/10/10 13:21:31;;;;;;;39.40;37.13;;;;;;;17.87;100.00;102987.25;1940969;74;31508;-72
2021/10/10 13:26:55;;;;;;;38.27;36.17;;;;;;;17.99;100.00;102987.23;1941018;74;31495;-72
2021/10/10 13:32:19;;;;;;;36.80;34.90;;;;;;;18.01;100.00;102971.50;1940871;74;31195;-72
2021/10/10 13:37:48;;;;;;;36.60;34.70;;;;;;;18.06;100.00;102962.47;1940899;74;31006;-72
2021/10/10 13:43:14;;;;;;;34.43;32.63;;;;;;;18.23;100.00;102951.48;1940801;74;31182;-72
2021/10/10 13:48:39;;;;;;;39.77;37.77;;;;;;;18.18;100.00;102962.18;1940997;74;31551;-72
2021/10/10 13:54:04;;;;;;;37.07;35.17;;;;;;;18.19;100.00;102956.25;1940784;74;31110;-72
2021/10/10 13:59:28;;;;;;;36.13;34.23;;;;;;;18.16;100.00;102954.02;1940799;74;31080;-72
2021/10/10 14:04:53;;;;;;;37.27;35.37;;;;;;;18.24;100.00;102950.33;1940955;74;31472;-72
2021/10/10 14:10:17;;;;;;;34.60;32.80;;;;;;;18.28;100.00;102950.03;1940831;74;31184;-72
2021/10/10 14:15:44;;;;;;;35.93;33.87;;;;;;;18.31;100.00;102951.73;1940796;74;31151;-72
2021/10/10 14:21:08;;;;;;;34.13;32.23;;;;;;;18.28;100.00;102945.81;1940829;74;31078;-72
2021/10/10 14:26:34;;;;;;;37.67;35.77;;;;;;;18.29;100.00;102939.06;1940848;74;31015;-72
2021/10/10 14:31:58;;;;;;;35.83;34.03;;;;;;;18.28;100.00;102943.00;1940799;74;31066;-72
2021/10/10 14:37:23;;;;;;;31.87;30.27;;;;;;;18.37;100.00;102941.28;1940782;74;31085;-72
2021/10/10 14:42:51;;;;;;;32.63;31.00;;;;;;;18.37;100.00;102941.28;1940900;74;30995;-72
2021/10/10 14:48:14;;;;;;;35.40;33.80;;;;;;;18.32;100.00;102932.84;1940792;74;31101;-72
2021/10/10 14:53:39;;;;;;;33.47;31.97;;;;;;;18.16;100.00;102930.10;1940803;74;31044;-72
2021/10/10 14:59:04;;;;;;;32.67;31.07;;;;;;;18.21;100.00;102929.25;1940759;74;31093;-73
2021/10/10 15:04:30;;;;;;;34.80;33.10;;;;;;;18.16;100.00;102930.66;1940820;74;31014;-72
2021/10/10 15:09:55;;;;;;;34.47;32.67;;;;;;;18.05;100.00;102935.49;1941012;74;31587;-71
2021/10/10 15:15:21;;;;;;;32.43;30.73;;;;;;;18.01;100.00;102937.75;1940930;74;33474;-72
2021/10/10 15:20:47;;;;;;;34.53;32.63;;;;;;;17.84;100.00;102933.00;1940963;74;31016;-72
2021/10/10 15:26:11;;;;;;;35.17;33.07;;;;;;;17.82;100.00;102932.43;1940812;74;31085;-72
2021/10/10 15:31:35;;;;;;;41.63;39.43;;;;;;;17.81;100.00;102919.48;1940740;74;31016;-72
2021/10/10 15:37:01;;;;;;;35.37;33.43;;;;;;;17.49;100.00;102926.81;1940732;74;31075;-72
2021/10/10 15:42:27;;;;;;;35.40;33.40;;;;;;;17.49;100.00;102926.81;1940774;74;31028;-72
2021/10/10 15:47:51;;;;;;;36.90;34.80;;;;;;;17.35;100.00;102940.58;1940978;74;31509;-72
2021/10/10 15:53:18;;;;;;;38.00;36.10;;;;;;;17.23;100.00;102940.01;1940931;74;33505;-71
2021/10/10 15:58:42;;;;;;;44.07;41.97;;;;;;;17.21;100.00;102940.83;1941068;74;31548;-72
2021/10/10 16:04:07;;;;;;;43.97;41.80;;;;;;;17.12;100.00;102943.34;1940842;74;31115;-72
2021/10/10 16:09:32;;;;;;;44.77;42.57;;;;;;;17.10;100.00;102935.78;1940876;74;31160;-72
2021/10/10 16:14:58;;;;;;;46.60;44.10;;;;;;;16.94;100.00;102932.67;1940980;74;31537;-72
2021/10/10 16:20:24;;;;;;;46.70;44.17;;;;;;;16.79;100.00;102941.88;1940910;74;31151;-72
2021/10/10 16:25:49;;;;;;;46.10;43.50;;;;;;;16.90;100.00;102943.33;1940952;74;33604;-70
2021/10/10 16:31:13;;;;;;;45.40;43.10;;;;;;;16.83;100.00;102938.80;1940770;74;31137;-72
2021/10/10 16:36:42;;;;;;;47.77;45.23;;;;;;;16.78;100.00;102940.75;1940972;74;31584;-72
2021/10/10 16:42:12;;;;;;;47.47;44.77;;;;;;;16.59;100.00;102948.84;1941001;74;33657;-73
2021/10/10 16:47:35;;;;;;;49.43;46.73;;;;;;;16.47;100.00;102938.94;1940901;74;33538;-73
2021/10/10 16:53:01;;;;;;;47.97;45.57;;;;;;;16.56;100.00;102933.09;1940779;74;31111;-72
2021/10/10 16:58:26;;;;;;;43.10;41.00;;;;;;;16.43;100.00;102933.59;1940762;74;31133;-71
2021/10/10 17:03:51;;;;;;;43.43;41.23;;;;;;;16.28;100.00;102935.75;1927334;72;32164;-70
2021/10/10 17:09:19;;;;;;;44.07;41.80;;;;;;;16.21;100.00;102935.17;1940879;74;31137;-70
2021/10/10 17:14:44;;;;;;;46.70;44.03;;;;;;;16.08;100.00;102943.52;1940951;74;33210;-69
2021/10/10 17:20:14;;;;;;;47.70;45.00;;;;;;;16.02;100.00;102951.59;1940983;74;31210;-68
2021/10/10 17:25:38;;;;;;;45.63;43.03;;;;;;;16.10;100.00;102959.49;1941031;74;31667;-69
2021/10/10 17:31:04;;;;;;;45.47;42.93;;;;;;;15.87;100.00;102950.11;1940857;74;31038;-68
2021/10/10 17:36:29;;;;;;;44.73;42.23;;;;;;;15.77;100.00;102984.50;1940886;74;33035;-68
2021/10/10 17:41:55;;;;;;;47.13;44.53;;;;;;;15.72;100.00;102973.80;1940935;74;33060;-68
2021/10/10 17:47:20;;;;;;;49.43;46.43;;;;;;;15.51;100.00;102984.55;1940903;74;33072;-69
2021/10/10 17:52:48;;;;;;;48.47;45.47;;;;;;;15.32;100.00;102993.30;1940891;74;33103;-68
2021/10/10 17:58:14;;;;;;;48.40;45.40;;;;;;;15.16;100.00;103004.06;1940876;74;31111;-69
2021/10/10 18:04:04;;;;;;;47.83;44.87;;;;;;;15.12;100.00;103014.64;1941088;74;33510;-69
2021/10/10 18:15:09;;;;;;;44.40;41.53;;;;;;;14.87;100.00;103020.25;1941083;74;33576;-70
2021/10/10 18:20:35;;;;;;;44.53;41.77;;;;;;;14.84;100.00;103032.53;1940936;74;33102;-69
2021/10/10 18:25:59;;;;;;;45.60;42.90;;;;;;;14.59;100.00;103040.86;1941000;74;33089;-68
2021/10/10 18:31:33;;;;;;;47.17;44.17;;;;;;;14.50;100.00;103034.59;1940944;74;33077;-70
2021/10/10 18:37:02;;;;;;;48.63;45.53;;;;;;;14.47;100.00;103050.47;1940962;74;33066;-69
2021/10/10 18:42:27;;;;;;;46.27;43.27;;;;;;;14.38;100.00;103062.65;1941208;74;33057;-68
2021/10/10 18:47:55;;;;;;;50.17;46.83;;;;;;;14.21;100.00;103065.98;1941087;74;33080;-69
2021/10/10 18:53:19;;;;;;;47.90;44.77;;;;;;;14.07;100.00;103068.31;1940989;74;33089;-69
2021/10/10 18:58:43;;;;;;;48.17;44.93;;;;;;;14.17;100.00;103077.39;1940952;74;33054;-68
2021/10/10 19:04:09;;;;;;;46.77;43.67;;;;;;;14.01;100.00;103075.45;1941192;74;33497;-67
2021/10/10 19:09:35;;;;;;;47.63;44.43;;;;;;;13.90;100.00;103073.05;1940883;74;33084;-67
2021/10/10 19:15:02;;;;;;;46.57;43.50;;;;;;;13.84;100.00;103083.83;1940859;74;32999;-67
2021/10/10 19:20:26;;;;;;;47.47;44.23;;;;;;;13.79;100.00;103094.91;1940916;74;33007;-66
2021/10/10 19:26:18;;;;;;;46.60;43.60;;;;;;;13.52;100.00;103095.27;2009687;70;32912;-69
2021/10/10 19:31:45;;;;;;;46.67;43.50;;;;;;;13.52;100.00;103100.27;1941090;74;33572;-69
2021/10/10 19:37:16;;;;;;;48.33;44.80;;;;;;;13.37;100.00;103097.20;1940909;74;33171;-66
2021/10/10 19:42:41;;;;;;;49.27;45.90;;;;;;;13.18;100.00;103106.84;1940805;74;32986;-67
2021/10/10 19:48:10;;;;;;;47.47;44.20;;;;;;;13.27;100.00;103102.57;1940928;74;33029;-66
2021/10/10 19:53:36;;;;;;;49.50;46.20;;;;;;;13.09;100.00;103113.34;1941076;74;33577;-67
2021/10/10 19:59:03;;;;;;;47.30;43.80;;;;;;;13.08;100.00;103121.43;1940794;74;33158;-68
2021/10/10 20:04:30;;;;;;;44.17;41.27;;;;;;;13.11;100.00;103115.92;1940864;74;33066;-70
2021/10/10 20:09:56;;;;;;;49.07;45.80;;;;;;;13.25;100.00;103115.95;1941152;74;33026;-67
2021/10/10 20:15:22;;;;;;;49.83;46.63;;;;;;;12.95;100.00;103118.91;1940998;74;33784;-67
2021/10/10 20:20:47;;;;;;;45.13;42.50;;;;;;;13.23;100.00;103122.31;1941102;74;33096;-69
2021/10/10 20:26:33;;;;;;;45.20;42.73;;;;;;;13.25;100.00;103131.30;2009909;71;33306;-69
2021/10/10 20:32:05;;;;;;;43.77;41.03;;;;;;;13.19;100.00;103137.86;1940865;74;33005;-66
2021/10/10 20:37:31;;;;;;;41.90;39.27;;;;;;;13.27;100.00;103133.82;1940821;74;33075;-67
2021/10/10 20:42:57;;;;;;;39.23;36.93;;;;;;;13.65;100.00;103139.61;1940830;74;33046;-66
2021/10/10 20:48:23;;;;;;;40.20;37.70;;;;;;;13.60;100.00;103140.94;1941037;74;33612;-66
2021/10/10 20:53:49;;;;;;;42.30;39.57;;;;;;;13.41;100.00;103139.42;1940962;74;33079;-67
2021/10/10 20:59:14;;;;;;;43.37;40.77;;;;;;;13.46;100.00;103148.77;1941017;74;33044;-69
2021/10/10 21:04:40;;;;;;;46.23;43.50;;;;;;;12.98;100.00;103146.31;1941041;74;33608;-68
2021/10/10 21:10:06;;;;;;;44.60;41.93;;;;;;;12.70;100.00;103159.64;1940996;74;33512;-66
2021/10/10 21:15:31;;;;;;;45.33;42.57;;;;;;;12.63;100.00;103157.50;1940848;74;32997;-68
2021/10/10 21:20:56;;;;;;;46.63;43.47;;;;;;;12.58;100.00;103158.77;1941018;74;33547;-67
2021/10/10 21:26:21;;;;;;;45.07;42.17;;;;;;;12.42;100.00;103147.50;1940906;74;33091;-66
2021/10/10 21:31:51;;;;;;;45.83;43.03;;;;;;;12.38;100.00;103153.25;1940875;74;33121;-67
2021/10/10 21:37:15;;;;;;;46.63;43.83;;;;;;;12.32;100.00;103143.94;1940926;74;33474;-67
2021/10/10 21:42:40;;;;;;;49.17;45.70;;;;;;;12.25;100.00;103145.97;1941036;74;33573;-67
2021/10/10 21:48:07;;;;;;;51.13;48.23;;;;;;;12.03;100.00;103134.55;1940988;74;33043;-66
2021/10/10 21:53:39;;;;;;;50.07;47.07;;;;;;;12.12;100.00;103140.08;1941087;74;33526;-67
2021/10/10 21:59:00;;;;;;;49.47;46.67;;;;;;;12.09;100.00;103150.86;1941025;74;33508;-67
2021/10/10 22:04:25;;;;;;;49.93;46.83;;;;;;;12.32;100.00;103155.91;1940921;74;33130;-67
2021/10/10 22:09:50;;;;;;;49.13;46.23;;;;;;;12.21;100.00;103160.94;1940996;74;33041;-66
2021/10/10 22:15:15;;;;;;;52.30;49.07;;;;;;;12.15;100.00;103161.06;1941087;74;32982;-67
2021/10/10 22:20:45;;;;;;;51.60;48.53;;;;;;;12.17;100.00;103166.69;1940860;74;32987;-66
2021/10/10 22:26:15;;;;;;;53.50;49.90;;;;;;;11.84;100.00;103167.22;1941007;74;33479;-68
2021/10/10 22:31:39;;;;;;;54.13;50.83;;;;;;;11.66;100.00;103164.98;1941002;74;33524;-66
2021/10/10 22:37:04;;;;;;;50.63;47.53;;;;;;;11.48;100.00;103178.41;1941057;74;33489;-66
2021/10/10 22:42:28;;;;;;;51.00;48.00;;;;;;;11.66;100.00;103175.59;1940930;74;33138;-67
2021/10/10 22:47:53;;;;;;;49.23;46.23;;;;;;;11.32;100.00;103166.53;1941004;74;32985;-67
2021/10/10 22:53:19;;;;;;;49.30;46.20;;;;;;;11.47;100.00;103168.34;1940866;74;33009;-67
2021/10/10 22:58:44;;;;;;;49.17;46.07;;;;;;;11.40;100.00;103162.03;1940921;74;33016;-66
2021/10/10 23:04:09;;;;;;;47.40;44.60;;;;;;;11.12;100.00;103155.66;1941073;74;33024;-67
2021/10/10 23:09:34;;;;;;;49.43;46.27;;;;;;;11.46;100.00;103163.03;1940858;74;33060;-67
2021/10/10 23:14:59;;;;;;;46.57;43.43;;;;;;;11.52;100.00;103161.54;1940910;74;33062;-67
2021/10/10 23:20:24;;;;;;;48.47;45.60;;;;;;;11.36;100.00;103153.84;1940883;74;33049;-66
2021/10/10 23:25:49;;;;;;;47.40;44.37;;;;;;;11.39;100.00;103155.61;1941014;74;33565;-66
2021/10/10 23:31:14;;;;;;;49.03;45.97;;;;;;;11.36;100.00;103141.32;1940938;74;33474;-66
2021/10/10 23:36:39;;;;;;;48.27;45.20;;;;;;;11.30;100.00;103142.25;1940981;74;33090;-66
2021/10/10 23:42:04;;;;;;;49.03;45.90;;;;;;;11.16;100.00;103136.56;1940772;74;32989;-67
2021/10/10 23:47:28;;;;;;;45.47;42.47;;;;;;;11.25;100.00;103131.00;1940813;74;33096;-66
2021/10/10 23:52:53;;;;;;;44.90;41.97;;;;;;;11.22;100.00;103131.44;1940778;74;33118;-67
2021/10/10 23:58:18;;;;;;;46.27;43.17;;;;;;;11.24;100.00;103126.51;1940899;74;33068;-67
